Time;durP1;ratioP1;P1;durP2;ratioP2;P2;SDS_P1;SDS_P2;PMS_P1;PMS_P2;Temp;Humidity;BMP_temperature;BMP_pressure;BME280_temperature;BME280_humidity;BME280_pressure;Samples;Min_cycle;Max_cycle;Signal;HPM_P1;HPM_P2
2022/12/24 00:03:21;;;;;;;;;;;;;;;;;;8419884;27;28049;-79
2022/12/24 00:07:21;;;;;;;;;;;;;;;;;;8419255;27;27858;-80
2022/12/24 00:11:21;;;;;;;;;;;;;;;;;;8424219;27;27712;-82
2022/12/24 00:15:21;;;;;;;;;;;;;;;;;;8426502;27;27329;-82
2022/12/24 00:19:21;;;;;;;;;;;;;;;;;;8417685;27;28491;-78
2022/12/24 00:23:21;;;;;;;;;;;;;;;;;;8422031;27;29328;-79
2022/12/24 00:27:21;;;;;;;;;;;;;;;;;;8413936;27;28536;-78
2022/12/24 00:31:21;;;;;;;;;;;;;;;;;;8424629;27;28462;-80
2022/12/24 00:35:22;;;;;;;;;;;;;;;;;;8424515;27;27716;-81
2022/12/24 00:39:22;;;;;;;;;;;;;;;;;;8413619;27;28161;-80
2022/12/24 00:43:22;;;;;;;;;;;;;;;;;;8416289;27;28356;-79
2022/12/24 00:47:22;;;;;;;;;;;;;;;;;;8414320;27;28749;-79
2022/12/24 00:51:22;;;;;;;;;;;;;;;;;;8425668;27;28641;-80
2022/12/24 00:55:22;;;;;;;;;;;;;;;;;;8418969;27;29101;-79
2022/12/24 00:59:22;;;;;;;;;;;;;;;;;;8415868;27;27805;-78
2022/12/24 01:03:22;;;;;;;;;;;;;;;;;;8422655;27;27187;-79
2022/12/24 01:07:22;;;;;;;;;;;;;;;;;;8414544;27;28422;-80
2022/12/24 01:11:22;;;;;;;;;;;;;;;;;;8421361;27;28133;-78
2022/12/24 01:15:22;;;;;;;;;;;;;;;;;;8419524;27;28572;-77
2022/12/24 01:19:22;;;;;;;;;;;;;;;;;;8417583;27;28087;-78
2022/12/24 01:23:22;;;;;;;;;;;;;;;;;;8418223;27;27618;-83
2022/12/24 01:27:23;;;;;;;;;;;;;;;;;;8419016;27;27738;-78
2022/12/24 01:31:23;;;;;;;;;;;;;;;;;;8419241;27;28620;-78
2022/12/24 01:35:23;;;;;;;;;;;;;;;;;;8421682;27;28519;-80
2022/12/24 01:39:23;;;;;;;;;;;;;;;;;;8419764;27;27694;-79
2022/12/24 01:43:23;;;;;;;;;;;;;;;;;;8419307;27;28732;-82
2022/12/24 01:47:23;;;;;;;;;;;;;;;;;;8413277;27;28267;-81
2022/12/24 01:51:23;;;;;;;;;;;;;;;;;;8422673;27;27482;-79
2022/12/24 01:55:23;;;;;;;;;;;;;;;;;;8420667;27;29346;-80
2022/12/24 01:59:23;;;;;;;;;;;;;;;;;;8413441;27;28006;-78
2022/12/24 02:03:23;;;;;;;;;;;;;;;;;;8423527;27;28427;-78
2022/12/24 02:07:23;;;;;;;;;;;;;;;;;;8415549;27;28854;-80
2022/12/24 02:11:24;;;;;;;;;;;;;;;;;;8415687;27;28485;-80
2022/12/24 02:15:24;;;;;;;;;;;;;;;;;;8422497;27;28270;-79
2022/12/24 02:19:24;;;;;;;;;;;;;;;;;;8414688;27;27825;-80
2022/12/24 02:23:24;;;;;;;;;;;;;;;;;;8418548;27;28522;-80
2022/12/24 02:27:24;;;;;;;;;;;;;;;;;;8415211;27;27625;-80
2022/12/24 02:31:24;;;;;;;;;;;;;;;;;;8420049;27;28093;-79
2022/12/24 02:35:24;;;;;;;;;;;;;;;;;;8418114;27;27869;-81
2022/12/24 02:39:24;;;;;;;;;;;;;;;;;;8415359;27;28142;-80
2022/12/24 02:43:24;;;;;;;;;;;;;;;;;;8420362;27;27842;-78
2022/12/24 02:47:24;;;;;;;;;;;;;;;;;;8415156;27;28169;-79
2022/12/24 02:51:24;;;;;;;;;;;;;;;;;;8421214;27;27468;-79
2022/12/24 02:55:25;;;;;;;;;;;;;;;;;;8416106;27;27807;-78
2022/12/24 02:59:25;;;;;;;;;;;;;;;;;;8420003;27;27407;-78
2022/12/24 03:03:25;;;;;;;;;;;;;;;;;;8416063;27;27532;-78
2022/12/24 03:07:25;;;;;;;;;;;;;;;;;;8417697;27;27291;-78
2022/12/24 03:11:25;;;;;;;;;;;;;;;;;;8417797;27;27701;-79
2022/12/24 03:15:25;;;;;;;;;;;;;;;;;;8420622;27;27591;-77
2022/12/24 03:19:25;;;;;;;;;;;;;;;;;;8418545;27;27687;-79
2022/12/24 03:23:25;;;;;;;;;;;;;;;;;;8420302;27;27531;-78
2022/12/24 03:27:25;;;;;;;;;;;;;;;;;;8417619;27;28421;-80
2022/12/24 03:31:25;;;;;;;;;;;;;;;;;;8408174;27;29657;-79
2022/12/24 03:35:25;;;;;;;;;;;;;;;;;;8416255;27;27503;-80
2022/12/24 03:39:25;;;;;;;;;;;;;;;;;;8420670;27;27352;-78
2022/12/24 03:43:25;;;;;;;;;;;;;;;;;;8417245;27;27400;-79
2022/12/24 03:47:26;;;;;;;;;;;;;;;;;;8415070;27;27597;-80
2022/12/24 03:51:28;;;;;;;;;;;;;;;;;;8413275;27;48906;-79
2022/12/24 03:55:28;;;;;;;;;;;;;;;;;;8419768;27;28782;-78
2022/12/24 03:59:28;;;;;;;;;;;;;;;;;;8419061;27;27764;-80
2022/12/24 04:03:28;;;;;;;;;;;;;;;;;;8413175;27;28678;-79
2022/12/24 04:07:28;;;;;;;;;;;;;;;;;;8415474;27;27461;-77
2022/12/24 04:11:28;;;;;;;;;;;;;;;;;;8417106;27;27792;-80
2022/12/24 04:15:28;;;;;;;;;;;;;;;;;;8423015;27;27409;-80
2022/12/24 04:19:28;;;;;;;;;;;;;;;;;;8416591;27;27270;-80
2022/12/24 04:23:28;;;;;;;;;;;;;;;;;;8417981;27;27403;-78
2022/12/24 04:27:30;;;;;;;;;;;;;;;;;;8421383;27;27631;-77
2022/12/24 04:31:30;;;;;;;;;;;;;;;;;;8418904;27;28745;-79
2022/12/24 04:35:30;;;;;;;;;;;;;;;;;;8420109;27;28587;-78
2022/12/24 04:39:30;;;;;;;;;;;;;;;;;;8423533;27;27407;-79
2022/12/24 04:43:30;;;;;;;;;;;;;;;;;;8420848;27;27457;-78
2022/12/24 04:47:30;;;;;;;;;;;;;;;;;;8417208;27;29174;-80
2022/12/24 04:51:30;;;;;;;;;;;;;;;;;;8419938;27;28777;-79
2022/12/24 04:55:30;;;;;;;;;;;;;;;;;;8424982;27;27454;-79
2022/12/24 04:59:30;;;;;;;;;;;;;;;;;;8424990;27;27458;-78
2022/12/24 05:03:30;;;;;;;;;;;;;;;;;;8422790;27;28814;-80
2022/12/24 05:07:30;;;;;;;;;;;;;;;;;;8421682;27;27234;-82
2022/12/24 05:11:30;;;;;;;;;;;;;;;;;;8426191;27;27328;-77
2022/12/24 05:15:31;;;;;;;;;;;;;;;;;;8429928;27;27710;-79
2022/12/24 05:19:31;;;;;;;;;;;;;;;;;;8427293;27;28079;-78
2022/12/24 05:27:50;;;;;;;;;;;;;;;;;;8421527;27;27244;-78
2022/12/24 05:31:50;;;;;;;;;;;;;;;;;;8422243;27;27498;-79
2022/12/24 05:35:50;;;;;;;;;;;;;;;;;;8425573;27;27494;-80
2022/12/24 05:39:50;;;;;;;;;;;;;;;;;;8420214;27;27662;-80
2022/12/24 05:43:50;;;;;;;;;;;;;;;;;;8424812;27;27311;-81
2022/12/24 05:47:50;;;;;;;;;;;;;;;;;;8421808;27;28512;-79
2022/12/24 05:51:50;;;;;;;;;;;;;;;;;;8421354;27;28538;-77
2022/12/24 05:55:50;;;;;;;;;;;;;;;;;;8424721;27;29773;-79
2022/12/24 05:59:50;;;;;;;;;;;;;;;;;;8419971;27;28802;-81
2022/12/24 06:03:50;;;;;;;;;;;;;;;;;;8424717;27;27453;-80
2022/12/24 06:07:50;;;;;;;;;;;;;;;;;;8421886;27;27497;-78
2022/12/24 06:11:51;;;;;;;;;;;;;;;;;;8425477;27;27420;-79
2022/12/24 06:15:51;;;;;;;;;;;;;;;;;;8423457;27;27387;-78
2022/12/24 06:19:51;;;;;;;;;;;;;;;;;;8420585;27;27349;-79
2022/12/24 06:23:51;;;;;;;;;;;;;;;;;;8423201;27;27533;-79
2022/12/24 06:27:51;;;;;;;;;;;;;;;;;;8422505;27;27596;-79
2022/12/24 06:31:51;;;;;;;;;;;;;;;;;;8421271;27;27533;-79
2022/12/24 06:35:51;;;;;;;;;;;;;;;;;;8422791;27;27318;-78
2022/12/24 06:39:51;;;;;;;;;;;;;;;;;;8422362;27;28250;-79
2022/12/24 06:43:51;;;;;;;;;;;;;;;;;;8418044;27;27978;-81
2022/12/24 06:47:52;;;;;;;;;;;;;;;;;;8421161;27;28774;-82
2022/12/24 06:51:52;;;;;;;;;;;;;;;;;;8423219;27;27087;-80
2022/12/24 06:55:52;;;;;;;;;;;;;;;;;;8418667;27;27911;-78
2022/12/24 06:59:52;;;;;;;;;;;;;;;;;;8422077;27;27421;-78
2022/12/24 07:03:52;;;;;;;;;;;;;;;;;;8421349;27;28802;-80
2022/12/24 07:07:52;;;;;;;;;;;;;;;;;;8425784;27;28723;-81
2022/12/24 07:11:52;;;;;;;;;;;;;;;;;;8419692;27;27184;-79
2022/12/24 07:15:52;;;;;;;;;;;;;;;;;;8421490;27;27653;-79
2022/12/24 07:19:52;;;;;;;;;;;;;;;;;;8423172;27;27257;-80
2022/12/24 07:23:52;;;;;;;;;;;;;;;;;;8422001;27;27190;-79
2022/12/24 07:27:52;;;;;;;;;;;;;;;;;;8420254;27;27285;-81
2022/12/24 07:31:52;;;;;;;;;;;;;;;;;;8422570;27;27480;-78
2022/12/24 07:35:53;;;;;;;;;;;;;;;;;;8422315;27;27125;-77
2022/12/24 07:39:53;;;;;;;;;;;;;;;;;;8422770;27;27361;-79
2022/12/24 07:43:53;;;;;;;;;;;;;;;;;;8417689;27;27389;-78
2022/12/24 07:47:53;;;;;;;;;;;;;;;;;;8420391;27;28361;-78
2022/12/24 07:51:54;;;;;;;;;;;;;;;;;;8423899;27;27552;-79
2022/12/24 07:55:54;;;;;;;;;;;;;;;;;;8420924;27;28272;-79
2022/12/24 07:59:54;;;;;;;;;;;;;;;;;;8421199;27;28579;-81
2022/12/24 08:03:54;;;;;;;;;;;;;;;;;;8415375;27;28687;-81
2022/12/24 08:07:54;;;;;;;;;;;;;;;;;;8421182;27;27991;-82
2022/12/24 08:11:54;;;;;;;;;;;;;;;;;;8419048;27;27906;-79
2022/12/24 08:15:54;;;;;;;;;;;;;;;;;;8417493;27;27483;-79
2022/12/24 08:19:54;;;;;;;;;;;;;;;;;;8420110;27;27616;-78
2022/12/24 08:23:54;;;;;;;;;;;;;;;;;;8421549;27;27189;-77
2022/12/24 08:27:54;;;;;;;;;;;;;;;;;;8424962;27;27317;-79
2022/12/24 08:31:55;;;;;;;;;;;;;;;;;;8422806;27;27383;-79
2022/12/24 08:35:55;;;;;;;;;;;;;;;;;;8420733;27;27371;-78
2022/12/24 08:39:55;;;;;;;;;;;;;;;;;;8421588;27;28490;-82
2022/12/24 08:43:55;;;;;;;;;;;;;;;;;;8427405;27;27841;-82
2022/12/24 08:47:55;;;;;;;;;;;;;;;;;;8427865;27;27783;-82
2022/12/24 08:51:55;;;;;;;;;;;;;;;;;;8427931;27;28248;-82
2022/12/24 08:55:55;;;;;;;;;;;;;;;;;;8428674;27;28619;-81
2022/12/24 08:59:56;;;;;;;;;;;;;;;;;;8426804;27;27431;-79
2022/12/24 09:03:56;;;;;;;;;;;;;;;;;;8424720;27;27472;-79
2022/12/24 09:07:56;;;;;;;;;;;;;;;;;;8419708;27;28142;-79
2022/12/24 09:11:56;;;;;;;;;;;;;;;;;;8422625;27;27517;-79
2022/12/24 09:15:56;;;;;;;;;;;;;;;;;;8434475;27;29821;-79
2022/12/24 09:19:56;;;;;;;;;;;;;;;;;;8429051;27;27424;-79
2022/12/24 09:23:56;;;;;;;;;;;;;;;;;;8425639;27;28123;-80
2022/12/24 09:27:56;;;;;;;;;;;;;;;;;;8427824;27;27408;-78
2022/12/24 09:31:56;;;;;;;;;;;;;;;;;;8427989;27;27283;-78
2022/12/24 09:35:56;;;;;;;;;;;;;;;;;;8429726;27;27656;-80
2022/12/24 09:39:56;;;;;;;;;;;;;;;;;;8431620;27;27837;-80
2022/12/24 09:43:57;;;;;;;;;;;;;;;;;;8428790;27;30082;-80
2022/12/24 09:47:57;;;;;;;;;;;;;;;;;;8432282;27;27228;-81
2022/12/24 09:51:58;;;;;;;;;;;;;;;;;;8432437;27;29563;-80
2022/12/24 09:55:59;;;;;;;;;;;;;;;;;;8429111;27;28824;-81
2022/12/24 09:59:59;;;;;;;;;;;;;;;;;;8436563;27;27397;-80
2022/12/24 10:03:59;;;;;;;;;;;;;;;;;;8433326;27;27385;-80
2022/12/24 10:07:59;;;;;;;;;;;;;;;;;;8432816;27;27839;-81
2022/12/24 10:11:59;;;;;;;;;;;;;;;;;;8434397;27;27780;-80
2022/12/24 10:15:59;;;;;;;;;;;;;;;;;;8433696;27;27412;-79
2022/12/24 10:19:59;;;;;;;;;;;;;;;;;;8438151;27;28495;-80
2022/12/24 10:23:59;;;;;;;;;;;;;;;;;;8440970;27;27152;-81
2022/12/24 10:27:59;;;;;;;;;;;;;;;;;;8440184;27;28773;-79
2022/12/24 10:31:59;;;;;;;;;;;;;;;;;;8440467;27;27935;-82
2022/12/24 10:35:59;;;;;;;;;;;;;;;;;;8435621;27;27570;-80
2022/12/24 10:40:00;;;;;;;;;;;;;;;;;;8437847;27;27680;-80
2022/12/24 10:44:00;;;;;;;;;;;;;;;;;;8443679;27;28997;-80
2022/12/24 10:48:00;;;;;;;;;;;;;;;;;;8439611;27;27271;-81
2022/12/24 10:52:00;;;;;;;;;;;;;;;;;;8435991;27;28793;-81
2022/12/24 10:56:00;;;;;;;;;;;;;;;;;;8425657;27;28658;-82
2022/12/24 11:00:00;;;;;;;;;;;;;;;;;;8425656;27;28561;-81
2022/12/24 11:04:01;;;;;;;;;;;;;;;;;;8429200;27;27397;-81
2022/12/24 11:08:01;;;;;;;;;;;;;;;;;;8423696;27;27313;-80
2022/12/24 11:12:01;;;;;;;;;;;;;;;;;;8425019;27;29905;-80
2022/12/24 11:16:01;;;;;;;;;;;;;;;;;;8421770;27;27619;-80
2022/12/24 11:20:02;;;;;;;;;;;;;;;;;;8417131;27;28827;-79
2022/12/24 11:24:02;;;;;;;;;;;;;;;;;;8425156;27;27713;-80
2022/12/24 11:28:03;;;;;;;;;;;;;;;;;;8424318;27;28499;-80
2022/12/24 11:32:03;;;;;;;;;;;;;;;;;;8422467;27;27449;-81
2022/12/24 11:36:03;;;;;;;;;;;;;;;;;;8427831;27;28587;-78
2022/12/24 11:40:03;;;;;;;;;;;;;;;;;;8425906;27;28355;-80
2022/12/24 11:44:05;;;;;;;;;;;;;;;;;;8423372;27;27714;-79
2022/12/24 11:48:05;;;;;;;;;;;;;;;;;;8430112;27;29737;-81
2022/12/24 11:52:05;;;;;;;;;;;;;;;;;;8423960;27;28542;-81
2022/12/24 11:56:05;;;;;;;;;;;;;;;;;;8428270;27;27371;-80
2022/12/24 12:00:07;;;;;;;;;;;;;;;;;;8424684;27;27764;-80
2022/12/24 12:04:07;;;;;;;;;;;;;;;;;;8423761;27;27544;-81
2022/12/24 12:08:07;;;;;;;;;;;;;;;;;;8421600;27;28464;-82
2022/12/24 12:12:07;;;;;;;;;;;;;;;;;;8425562;27;27315;-81
2022/12/24 12:16:07;;;;;;;;;;;;;;;;;;8423757;27;27396;-79
2022/12/24 12:20:07;;;;;;;;;;;;;;;;;;8427586;27;27732;-81
2022/12/24 12:24:07;;;;;;;;;;;;;;;;;;8424291;27;27656;-78
2022/12/24 12:28:08;;;;;;;;;;;;;;;;;;8419216;27;27354;-80
2022/12/24 12:32:08;;;;;;;;;;;;;;;;;;8425607;27;28754;-80
2022/12/24 12:36:08;;;;;;;;;;;;;;;;;;8423199;27;27347;-80
2022/12/24 12:40:08;;;;;;;;;;;;;;;;;;8425272;27;29463;-80
2022/12/24 12:44:08;;;;;;;;;;;;;;;;;;8423019;27;27615;-81
2022/12/24 12:48:08;;;;;;;;;;;;;;;;;;8426930;27;27122;-79
2022/12/24 12:52:08;;;;;;;;;;;;;;;;;;8423417;27;27671;-79
2022/12/24 12:56:09;;;;;;;;;;;;;;;;;;8421429;27;27383;-78
2022/12/24 13:00:09;;;;;;;;;;;;;;;;;;8423643;27;27820;-79
2022/12/24 13:04:09;;;;;;;;;;;;;;;;;;8424611;27;27557;-79
2022/12/24 13:08:09;;;;;;;;;;;;;;;;;;8424526;27;28977;-80
2022/12/24 13:12:09;;;;;;;;;;;;;;;;;;8423948;27;28860;-80
2022/12/24 13:16:09;;;;;;;;;;;;;;;;;;8421138;27;27634;-79
2022/12/24 13:20:09;;;;;;;;;;;;;;;;;;8431264;27;27582;-79
2022/12/24 13:24:09;;;;;;;;;;;;;;;;;;8426952;27;28352;-79
2022/12/24 13:28:09;;;;;;;;;;;;;;;;;;8424859;27;27235;-79
2022/12/24 13:32:10;;;;;;;;;;;;;;;;;;8422821;27;28116;-80
2022/12/24 13:36:10;;;;;;;;;;;;;;;;;;8428220;27;27850;-79
2022/12/24 13:40:10;;;;;;;;;;;;;;;;;;8426366;27;28136;-79
2022/12/24 13:44:11;;;;;;;;;;;;;;;;;;8429632;27;28432;-80
2022/12/24 13:48:11;;;;;;;;;;;;;;;;;;8430074;27;28603;-80
2022/12/24 13:52:11;;;;;;;;;;;;;;;;;;8426848;27;27734;-80
2022/12/24 13:56:11;;;;;;;;;;;;;;;;;;8422967;27;29153;-80
2022/12/24 14:00:12;;;;;;;;;;;;;;;;;;8427778;27;27479;-80
2022/12/24 14:04:12;;;;;;;;;;;;;;;;;;8423924;27;27452;-79
2022/12/24 14:08:12;;;;;;;;;;;;;;;;;;8427519;27;28969;-80
2022/12/24 14:12:12;;;;;;;;;;;;;;;;;;8423577;27;29142;-78
2022/12/24 14:16:12;;;;;;;;;;;;;;;;;;8426457;27;27583;-80
2022/12/24 14:20:12;;;;;;;;;;;;;;;;;;8421663;27;28499;-81
2022/12/24 14:24:12;;;;;;;;;;;;;;;;;;8424229;27;27224;-81
2022/12/24 14:28:12;;;;;;;;;;;;;;;;;;8422798;27;29683;-80
2022/12/24 14:32:12;;;;;;;;;;;;;;;;;;8422368;27;27497;-79
2022/12/24 14:36:12;;;;;;;;;;;;;;;;;;8423535;27;27358;-81
2022/12/24 14:40:13;;;;;;;;;;;;;;;;;;8424855;27;27626;-80
2022/12/24 14:44:13;;;;;;;;;;;;;;;;;;8425602;27;29056;-80
2022/12/24 14:48:13;;;;;;;;;;;;;;;;;;8428504;27;28221;-79
2022/12/24 14:52:13;;;;;;;;;;;;;;;;;;8426897;27;28199;-80
2022/12/24 14:56:13;;;;;;;;;;;;;;;;;;8428598;27;27228;-80
2022/12/24 15:00:13;;;;;;;;;;;;;;;;;;8424159;27;29574;-79
2022/12/24 15:04:13;;;;;;;;;;;;;;;;;;8430452;27;27452;-79
2022/12/24 15:08:13;;;;;;;;;;;;;;;;;;8424178;27;27823;-79
2022/12/24 15:12:13;;;;;;;;;;;;;;;;;;8427512;27;27163;-80
2022/12/24 15:16:13;;;;;;;;;;;;;;;;;;8423102;27;27304;-78
2022/12/24 15:20:14;;;;;;;;;;;;;;;;;;8416914;27;27536;-80
2022/12/24 15:24:14;;;;;;;;;;;;;;;;;;8426962;27;28521;-80
2022/12/24 15:28:14;;;;;;;;;;;;;;;;;;8429400;27;28481;-80
2022/12/24 15:32:14;;;;;;;;;;;;;;;;;;8425011;27;28797;-81
2022/12/24 15:36:14;;;;;;;;;;;;;;;;;;8422652;27;27379;-81
2022/12/24 15:40:14;;;;;;;;;;;;;;;;;;8431722;27;28588;-81
2022/12/24 15:44:14;;;;;;;;;;;;;;;;;;8430702;27;28091;-78
2022/12/24 15:48:15;;;;;;;;;;;;;;;;;;8427473;27;27522;-80
2022/12/24 15:52:15;;;;;;;;;;;;;;;;;;8432790;27;28606;-80
2022/12/24 15:56:15;;;;;;;;;;;;;;;;;;8426546;27;27245;-81
2022/12/24 16:00:15;;;;;;;;;;;;;;;;;;8425077;27;28789;-80
2022/12/24 16:04:15;;;;;;;;;;;;;;;;;;8425097;27;29603;-80
2022/12/24 16:08:15;;;;;;;;;;;;;;;;;;8424962;27;28129;-80
2022/12/24 16:12:15;;;;;;;;;;;;;;;;;;8428987;27;27519;-80
2022/12/24 16:16:15;;;;;;;;;;;;;;;;;;8425547;27;27471;-81
2022/12/24 16:20:16;;;;;;;;;;;;;;;;;;8429302;27;27404;-79
2022/12/24 16:24:16;;;;;;;;;;;;;;;;;;8431191;27;28611;-80
2022/12/24 16:28:16;;;;;;;;;;;;;;;;;;8428434;27;28456;-79
2022/12/24 16:32:16;;;;;;;;;;;;;;;;;;8428206;27;27596;-81
2022/12/24 16:36:16;;;;;;;;;;;;;;;;;;8434636;27;27646;-79
2022/12/24 16:40:16;;;;;;;;;;;;;;;;;;8427977;27;28619;-79
2022/12/24 16:44:16;;;;;;;;;;;;;;;;;;8427294;27;28627;-80
2022/12/24 16:48:16;;;;;;;;;;;;;;;;;;8439215;27;27749;-81
2022/12/24 16:52:16;;;;;;;;;;;;;;;;;;8445805;27;27875;-79
2022/12/24 16:56:17;;;;;;;;;;;;;;;;;;8448885;27;27460;-80
2022/12/24 17:00:17;;;;;;;;;;;;;;;;;;8431887;27;28670;-78
2022/12/24 17:04:17;;;;;;;;;;;;;;;;;;8441220;27;28615;-79
2022/12/24 17:08:17;;;;;;;;;;;;;;;;;;8437372;27;27492;-78
2022/12/24 17:12:17;;;;;;;;;;;;;;;;;;8440117;27;27290;-78
2022/12/24 17:16:17;;;;;;;;;;;;;;;;;;8438542;27;27317;-80
2022/12/24 17:20:17;;;;;;;;;;;;;;;;;;8431197;27;27122;-80
2022/12/24 17:24:17;;;;;;;;;;;;;;;;;;8437846;27;27337;-79
2022/12/24 17:28:17;;;;;;;;;;;;;;;;;;8433573;27;27266;-79
2022/12/24 17:32:17;;;;;;;;;;;;;;;;;;8436114;27;27510;-80
2022/12/24 17:36:18;;;;;;;;;;;;;;;;;;8430340;27;27565;-79
2022/12/24 17:40:18;;;;;;;;;;;;;;;;;;8433748;27;27380;-80
2022/12/24 17:44:18;;;;;;;;;;;;;;;;;;8433465;27;27344;-79
2022/12/24 17:48:18;;;;;;;;;;;;;;;;;;8433719;27;28043;-81
2022/12/24 17:52:18;;;;;;;;;;;;;;;;;;8431822;27;27343;-79
2022/12/24 17:56:18;;;;;;;;;;;;;;;;;;8435490;27;27358;-81
2022/12/24 18:00:18;;;;;;;;;;;;;;;;;;8431156;27;28453;-81
2022/12/24 18:04:18;;;;;;;;;;;;;;;;;;8426076;27;28156;-81
2022/12/24 18:08:18;;;;;;;;;;;;;;;;;;8429750;27;28485;-81
2022/12/24 18:12:18;;;;;;;;;;;;;;;;;;8434216;27;28727;-82
2022/12/24 18:16:19;;;;;;;;;;;;;;;;;;8440682;27;28060;-80
2022/12/24 18:20:19;;;;;;;;;;;;;;;;;;8435650;27;27715;-80
2022/12/24 18:24:19;;;;;;;;;;;;;;;;;;8434130;27;28455;-79
2022/12/24 18:28:19;;;;;;;;;;;;;;;;;;8429136;27;28808;-80
2022/12/24 18:32:19;;;;;;;;;;;;;;;;;;8428048;27;27384;-79
2022/12/24 18:36:19;;;;;;;;;;;;;;;;;;8430290;27;28463;-80
2022/12/24 18:40:19;;;;;;;;;;;;;;;;;;8427060;27;29228;-78
2022/12/24 18:44:19;;;;;;;;;;;;;;;;;;8425578;27;28972;-78
2022/12/24 18:48:20;;;;;;;;;;;;;;;;;;8425915;27;28712;-79
2022/12/24 18:52:20;;;;;;;;;;;;;;;;;;8427186;27;28592;-79
2022/12/24 18:56:20;;;;;;;;;;;;;;;;;;8428673;27;28536;-80
2022/12/24 19:00:20;;;;;;;;;;;;;;;;;;8421170;27;29788;-79
2022/12/24 19:04:20;;;;;;;;;;;;;;;;;;8430694;27;28932;-81
2022/12/24 19:08:20;;;;;;;;;;;;;;;;;;8430338;27;28540;-81
2022/12/24 19:12:20;;;;;;;;;;;;;;;;;;8427925;27;30249;-80
2022/12/24 19:16:20;;;;;;;;;;;;;;;;;;8428775;27;28143;-80
2022/12/24 19:20:20;;;;;;;;;;;;;;;;;;8429686;27;27591;-79
2022/12/24 19:24:20;;;;;;;;;;;;;;;;;;8427654;27;27258;-79
2022/12/24 19:28:20;;;;;;;;;;;;;;;;;;8425086;27;27871;-80
2022/12/24 19:32:21;;;;;;;;;;;;;;;;;;8429503;27;29842;-79
2022/12/24 19:36:21;;;;;;;;;;;;;;;;;;8424938;27;28519;-80
2022/12/24 19:40:21;;;;;;;;;;;;;;;;;;8422434;27;27347;-80
2022/12/24 19:44:21;;;;;;;;;;;;;;;;;;8429370;27;27472;-81
2022/12/24 19:48:21;;;;;;;;;;;;;;;;;;8425674;27;27142;-79
2022/12/24 19:52:21;;;;;;;;;;;;;;;;;;8427454;27;27222;-81
2022/12/24 19:56:21;;;;;;;;;;;;;;;;;;8429038;27;28036;-80
2022/12/24 20:00:21;;;;;;;;;;;;;;;;;;8435127;27;29660;-78
2022/12/24 20:04:21;;;;;;;;;;;;;;;;;;8432887;27;28495;-79
2022/12/24 20:08:21;;;;;;;;;;;;;;;;;;8429018;27;28806;-80
2022/12/24 20:12:22;;;;;;;;;;;;;;;;;;8430404;27;27583;-79
2022/12/24 20:16:22;;;;;;;;;;;;;;;;;;8434137;27;28501;-79
2022/12/24 20:20:22;;;;;;;;;;;;;;;;;;8432798;27;27359;-79
2022/12/24 20:24:22;;;;;;;;;;;;;;;;;;8437987;27;28742;-79
2022/12/24 20:28:22;;;;;;;;;;;;;;;;;;8439731;27;27093;-79
2022/12/24 20:32:22;;;;;;;;;;;;;;;;;;8431183;27;29000;-80
2022/12/24 20:36:22;;;;;;;;;;;;;;;;;;8435552;27;28876;-78
2022/12/24 20:40:22;;;;;;;;;;;;;;;;;;8433087;27;28470;-78
2022/12/24 20:44:22;;;;;;;;;;;;;;;;;;8436391;27;28516;-79
2022/12/24 20:48:22;;;;;;;;;;;;;;;;;;8436192;27;27252;-80
2022/12/24 20:52:22;;;;;;;;;;;;;;;;;;8434902;27;28563;-79
2022/12/24 20:56:23;;;;;;;;;;;;;;;;;;8437952;27;27330;-79
2022/12/24 21:00:23;;;;;;;;;;;;;;;;;;8438044;27;27351;-78
2022/12/24 21:04:24;;;;;;;;;;;;;;;;;;8434089;27;27521;-79
2022/12/24 21:08:24;;;;;;;;;;;;;;;;;;8432072;27;28457;-79
2022/12/24 21:16:43;;;;;;;;;;;;;;;;;;8438149;27;27270;-79
2022/12/24 21:20:43;;;;;;;;;;;;;;;;;;8432152;27;28329;-79
2022/12/24 21:24:43;;;;;;;;;;;;;;;;;;8436377;27;27506;-79
2022/12/24 21:28:44;;;;;;;;;;;;;;;;;;8436497;27;28817;-79
2022/12/24 21:32:44;;;;;;;;;;;;;;;;;;8433176;27;27465;-81
2022/12/24 21:36:44;;;;;;;;;;;;;;;;;;8438765;27;27391;-79
2022/12/24 21:40:44;;;;;;;;;;;;;;;;;;8438312;27;27368;-81
2022/12/24 21:44:44;;;;;;;;;;;;;;;;;;8438029;27;28986;-80
2022/12/24 22:01:48;;;;;;;;;;;;;;;;;;8437865;27;27298;-79
2022/12/24 22:05:48;;;;;;;;;;;;;;;;;;8436745;27;27548;-78
2022/12/24 22:14:07;;;;;;;;;;;;;;;;;;8438458;27;27155;-79
2022/12/24 22:18:07;;;;;;;;;;;;;;;;;;8436227;27;28440;-79
2022/12/24 22:22:07;;;;;;;;;;;;;;;;;;8433220;27;29868;-79
2022/12/24 22:26:07;;;;;;;;;;;;;;;;;;8431592;27;28888;-79
2022/12/24 22:30:08;;;;;;;;;;;;;;;;;;8428236;27;28357;-81
2022/12/24 22:34:08;;;;;;;;;;;;;;;;;;8433985;27;29623;-81
2022/12/24 22:38:08;;;;;;;;;;;;;;;;;;8433037;27;28457;-78
2022/12/24 22:42:08;;;;;;;;;;;;;;;;;;8433677;27;27703;-79
2022/12/24 22:46:08;;;;;;;;;;;;;;;;;;8435635;27;27332;-78
2022/12/24 22:50:08;;;;;;;;;;;;;;;;;;8432732;27;27959;-80
2022/12/24 22:54:08;;;;;;;;;;;;;;;;;;8434206;27;28995;-81
2022/12/24 22:58:08;;;;;;;;;;;;;;;;;;8432475;27;27278;-78
2022/12/24 23:02:09;;;;;;;;;;;;;;;;;;8434219;27;27412;-80
2022/12/24 23:06:09;;;;;;;;;;;;;;;;;;8434594;27;28785;-79
2022/12/24 23:10:09;;;;;;;;;;;;;;;;;;8430694;27;28813;-80
2022/12/24 23:18:28;;;;;;;;;;;;;;;;;;8436817;27;27416;-78
2022/12/24 23:22:28;;;;;;;;;;;;;;;;;;8435871;27;27522;-78
2022/12/24 23:26:28;;;;;;;;;;;;;;;;;;8433794;27;27910;-80
2022/12/24 23:30:28;;;;;;;;;;;;;;;;;;8432316;27;28115;-78
2022/12/24 23:34:28;;;;;;;;;;;;;;;;;;8430938;27;27461;-79
2022/12/24 23:38:28;;;;;;;;;;;;;;;;;;8431932;27;28765;-78
2022/12/24 23:42:29;;;;;;;;;;;;;;;;;;8433642;27;27974;-80
2022/12/24 23:46:29;;;;;;;;;;;;;;;;;;8433682;27;27495;-81
2022/12/24 23:50:29;;;;;;;;;;;;;;;;;;8429423;27;27718;-80
2022/12/24 23:54:29;;;;;;;;;;;;;;;;;;8429346;27;28537;-78
2022/12/24 23:58:29;;;;;;;;;;;;;;;;;;8415056;27;27938;-79
